Parsons, West Virginia
Current Conditions -  °F | °C
As of 2:51 PM on Thursday 27 Nov 2014 (Local Time) from KEKN Reporting Station
Light Snow Light Snow  
Wind Chill: 25°   Ceiling: 3100
Heat Index: 30°   Visibility: 4mi
Dew Point: 25°   Wind: 5mph
Humidity: 82%   Direction: NA
Pressure: 30.08"   Gusts: NA
Location:  39.1°N, 79.68°W
Report Text: KEKN 271951Z AUTO VRB04KT 4SM -SN SCT022 OVC031 M01/M04 A3008 RMK AO2 SNB27 SLP209 P0000 T10111039 TSNO
Loading
Personal Weather Stations






























Interactive Weather Map New forecast layout! Learn more

10-Day Weather Forecast

Advertisements
Track Severe Weather on mobile